KPRO/PRO METAR and TAF weather

Enter ICAO airport designator
Station Type Date Time Source
KPRO METAR 2020/09/24 11:15 UTC NOAA

KPRO 241115Z AUTO 17005KT 10SM CLR 15/14 A2986 RMK AO2 T01510141


Station Type Date Time Source
KPRO Decoded METAR 2020/09/24 11:15 UTC NOAA

Station name not available
Sep 24, 2020 - 07:15 AM EDT / 2020.09.24 1115 UTC
Wind: from the S (170 degrees) at 6 MPH (5 KT):0
Visibility: 10 mile(s):0
Sky conditions: clear
Temperature: 59.2 F (15.1 C)
Dew Point: 57.4 F (14.1 C)
Relative Humidity: 93%
Pressure (altimeter): 29.86 in. Hg (1011 hPa)
ob: KPRO 241115Z AUTO 17005KT 10SM CLR 15/14 A2986 RMK AO2 T01510141
cycle: 11

Station Type Date Time Source
KPRO TAF UTC NOAA

Error!

Example: see airport list